North Shields, United Kingdom
Current Conditions -  °F | °C
As of 1:20 AM on Tuesday 23 Dec 2014 (Local Time) from EGNT Reporting Station
Light Rain Light Rain  
Wind Chill: 50°   Ceiling: Unl
Heat Index: 50°   Visibility: 5mi
Dew Point: 46°   Wind: 12mph
Humidity: 87%   Direction: 260°W
Pressure: 29.65"   Gusts: NA
Location:  55.01°N, 1.44°W
Report Text: EGNT 230120Z 26010KT 8000 -RA SCT018 10/08 Q1004
Loading
Personal Weather Stations






























Interactive Weather Map New forecast layout! Learn more

10-Day Weather Forecast

Advertisements
Track Severe Weather on mobile